createdAt,value
2022-08-17T00:00:42.640Z,19.20
2022-08-17T00:03:15.062Z,19.20
2022-08-17T00:05:47.322Z,19.10
2022-08-17T00:08:19.025Z,18.90
2022-08-17T00:10:48.696Z,19.00
2022-08-17T00:13:21.294Z,18.90
2022-08-17T00:15:51.081Z,18.90
2022-08-17T00:19:01.837Z,18.80
2022-08-17T00:21:11.582Z,18.80
2022-08-17T00:23:47.810Z,18.80
2022-08-17T00:26:44.273Z,18.70
2022-08-17T00:29:08.276Z,18.70
2022-08-17T00:31:38.603Z,18.70
2022-08-17T00:34:10.045Z,18.70
2022-08-17T00:36:38.391Z,18.70
2022-08-17T00:39:06.648Z,18.60
2022-08-17T00:41:35.850Z,18.60
2022-08-17T00:44:07.080Z,18.50
2022-08-17T00:46:40.962Z,18.50
2022-08-17T00:49:11.506Z,18.50
2022-08-17T00:51:47.404Z,18.40
2022-08-17T00:54:21.394Z,18.50
2022-08-17T00:56:56.230Z,18.50
2022-08-17T00:59:34.821Z,18.40
2022-08-17T01:02:07.159Z,18.50
2022-08-17T01:04:35.553Z,18.40
2022-08-17T01:07:05.913Z,18.40
2022-08-17T01:09:34.958Z,18.40
2022-08-17T01:12:03.125Z,18.30
2022-08-17T01:14:31.558Z,18.40
2022-08-17T01:17:00.270Z,18.40
2022-08-17T01:19:35.805Z,18.30
2022-08-17T01:22:16.887Z,18.00
2022-08-17T01:24:49.298Z,17.90
2022-08-17T01:27:20.650Z,17.80
2022-08-17T01:29:56.808Z,17.70
2022-08-17T01:32:25.597Z,17.70
2022-08-17T01:34:54.609Z,17.70
2022-08-17T01:37:34.461Z,17.50
2022-08-17T01:40:10.253Z,17.50
2022-08-17T01:42:47.716Z,17.50
2022-08-17T01:45:23.053Z,17.60
2022-08-17T01:47:52.130Z,17.50
2022-08-17T01:50:27.138Z,17.60
2022-08-17T01:53:01.475Z,17.50
2022-08-17T01:55:37.867Z,17.50
2022-08-17T01:58:09.605Z,17.50
2022-08-17T02:00:58.185Z,17.40
2022-08-17T02:03:26.735Z,17.40
2022-08-17T02:05:55.533Z,17.50
2022-08-17T02:08:37.298Z,17.50
2022-08-17T02:11:11.816Z,17.40
2022-08-17T02:13:40.255Z,17.40
2022-08-17T02:16:08.289Z,17.40
2022-08-17T02:18:36.361Z,17.40
2022-08-17T02:21:05.246Z,17.40
2022-08-17T02:23:40.439Z,17.30
2022-08-17T02:26:09.334Z,17.30
2022-08-17T02:28:52.355Z,17.20
2022-08-17T02:31:21.287Z,17.10
2022-08-17T02:33:56.873Z,17.20
2022-08-17T02:36:34.755Z,17.20
2022-08-17T02:39:07.321Z,17.20
2022-08-17T02:41:36.523Z,17.20
2022-08-17T02:44:05.841Z,17.30
2022-08-17T02:46:34.335Z,17.20
2022-08-17T02:49:02.268Z,17.20
2022-08-17T02:51:30.260Z,17.20
2022-08-17T02:54:02.188Z,17.10
2022-08-17T02:56:47.685Z,17.10
2022-08-17T02:59:15.626Z,17.10
2022-08-17T03:01:43.645Z,17.20
2022-08-17T03:04:11.661Z,17.20
2022-08-17T03:06:39.581Z,17.20
2022-08-17T03:09:07.489Z,16.90
2022-08-17T03:11:35.580Z,16.80
2022-08-17T03:14:11.036Z,16.90
2022-08-17T03:16:42.054Z,16.80
2022-08-17T03:19:10.497Z,16.80
2022-08-17T03:21:38.452Z,16.80
2022-08-17T03:24:08.970Z,16.80
2022-08-17T03:26:37.514Z,16.70
2022-08-17T03:29:06.746Z,16.70
2022-08-17T03:31:34.655Z,16.80
2022-08-17T03:34:05.178Z,16.70
2022-08-17T03:36:36.152Z,16.60
2022-08-17T03:39:05.538Z,16.50
2022-08-17T03:41:33.717Z,16.50
2022-08-17T03:44:01.904Z,16.50
2022-08-17T03:46:48.714Z,16.50
2022-08-17T03:49:34.384Z,16.50
2022-08-17T03:52:19.973Z,16.50
2022-08-17T03:55:05.416Z,16.40
2022-08-17T03:57:33.574Z,16.40
2022-08-17T04:00:01.587Z,16.40
2022-08-17T04:02:43.595Z,16.40
2022-08-17T04:05:11.545Z,16.50
2022-08-17T04:07:39.490Z,16.50
2022-08-17T04:10:10.399Z,16.40
2022-08-17T04:12:48.461Z,16.40
2022-08-17T04:15:18.410Z,16.50
2022-08-17T04:17:53.007Z,16.50
2022-08-17T04:20:23.715Z,16.50
2022-08-17T04:23:02.098Z,16.50
2022-08-17T04:25:33.155Z,16.50
2022-08-17T04:28:02.733Z,16.50
2022-08-17T04:30:34.391Z,16.50
2022-08-17T04:33:08.546Z,16.40
2022-08-17T04:35:40.333Z,16.50
2022-08-17T04:38:11.100Z,16.40
2022-08-17T04:40:56.841Z,16.30
2022-08-17T04:43:27.949Z,16.30
2022-08-17T04:45:59.662Z,16.10
2022-08-17T04:48:36.877Z,16.00
2022-08-17T04:51:10.342Z,16.10
2022-08-17T04:53:40.161Z,16.10
2022-08-17T04:56:11.796Z,16.10
2022-08-17T04:58:46.717Z,16.00
2022-08-17T05:01:15.615Z,16.10
2022-08-17T05:03:45.344Z,16.20
2022-08-17T05:06:13.330Z,16.20
2022-08-17T05:08:41.410Z,16.20
2022-08-17T05:11:10.191Z,16.30
2022-08-17T05:13:38.182Z,16.40
2022-08-17T05:16:06.953Z,16.50
2022-08-17T05:18:34.887Z,16.60
2022-08-17T05:21:04.195Z,16.70
2022-08-17T05:23:37.871Z,16.70
2022-08-17T05:26:20.406Z,16.90
2022-08-17T05:28:54.567Z,17.00
2022-08-17T05:31:25.072Z,17.00
2022-08-17T05:33:53.310Z,17.10
2022-08-17T05:36:42.015Z,17.20
2022-08-17T05:39:16.707Z,17.20
2022-08-17T05:41:49.065Z,17.30
2022-08-17T05:44:17.751Z,17.30
2022-08-17T05:46:54.310Z,17.40
2022-08-17T05:49:29.203Z,17.50
2022-08-17T05:52:19.955Z,17.60
2022-08-17T05:55:06.610Z,17.60
2022-08-17T05:57:53.413Z,17.70
2022-08-17T06:00:30.647Z,17.70
2022-08-17T06:03:31.574Z,17.70
2022-08-17T06:06:16.890Z,17.90
2022-08-17T06:08:54.114Z,18.00
2022-08-17T06:11:32.382Z,18.10
2022-08-17T06:14:32.112Z,18.20
2022-08-17T06:17:04.794Z,18.30
2022-08-17T06:19:40.400Z,18.40
2022-08-17T06:22:13.814Z,18.50
2022-08-17T06:24:49.970Z,18.60
2022-08-17T06:27:26.201Z,18.70
2022-08-17T06:30:05.387Z,18.70
2022-08-17T06:32:33.364Z,18.70
2022-08-17T06:35:04.450Z,18.80
2022-08-17T06:37:57.288Z,18.90
2022-08-17T06:40:52.608Z,19.00
2022-08-17T06:43:48.191Z,19.20
2022-08-17T06:46:35.280Z,19.30
2022-08-17T06:49:21.989Z,19.50
2022-08-17T06:51:57.608Z,19.60
2022-08-17T06:54:38.872Z,19.70
2022-08-17T06:57:20.963Z,19.80
2022-08-17T06:59:56.240Z,20.00
2022-08-17T07:02:52.579Z,20.10
2022-08-17T07:05:38.697Z,20.30
2022-08-17T07:08:18.554Z,20.40
2022-08-17T07:10:53.942Z,20.50
2022-08-17T07:13:34.636Z,20.60
2022-08-17T07:16:16.642Z,20.80
2022-08-17T07:18:45.244Z,20.90
2022-08-17T07:21:37.985Z,21.10
2022-08-17T07:24:29.992Z,21.20
2022-08-17T07:27:15.477Z,21.50
2022-08-17T07:29:53.532Z,21.60
2022-08-17T07:32:29.178Z,21.80
2022-08-17T07:35:19.949Z,21.90
2022-08-17T07:37:54.092Z,22.10
2022-08-17T07:40:28.300Z,22.30
2022-08-17T07:43:22.259Z,22.40
2022-08-17T07:46:23.479Z,22.60
2022-08-17T07:48:55.163Z,22.70
2022-08-17T07:51:31.214Z,22.90
2022-08-17T07:54:14.250Z,23.10
2022-08-17T07:56:47.994Z,23.30
2022-08-17T07:59:23.848Z,23.60
2022-08-17T08:02:18.737Z,23.70
2022-08-17T08:05:02.081Z,23.90
2022-08-17T08:07:34.685Z,24.10
2022-08-17T08:10:10.633Z,24.30
2022-08-17T08:12:41.574Z,24.40
2022-08-17T08:15:18.517Z,24.50
2022-08-17T08:17:53.481Z,24.70
2022-08-17T08:20:51.433Z,24.90
2022-08-17T08:23:36.906Z,25.00
2022-08-17T08:26:21.332Z,25.30
2022-08-17T08:29:01.655Z,25.50
2022-08-17T08:31:47.734Z,25.60
2022-08-17T08:34:59.073Z,25.80
2022-08-17T08:37:44.387Z,26.00
2022-08-17T08:40:34.541Z,26.20
2022-08-17T08:43:16.467Z,26.30
2022-08-17T08:45:56.528Z,26.40
2022-08-17T08:49:06.456Z,26.50
2022-08-17T08:51:55.451Z,26.60
2022-08-17T08:54:38.826Z,26.80
2022-08-17T08:57:32.750Z,26.80
2022-08-17T09:00:14.660Z,26.90
2022-08-17T09:03:14.633Z,27.00
2022-08-17T09:06:06.016Z,27.00
2022-08-17T09:09:10.476Z,27.20
2022-08-17T09:12:02.812Z,27.40
2022-08-17T09:14:45.187Z,27.50
2022-08-17T09:17:22.144Z,27.50
2022-08-17T09:19:57.219Z,27.60
2022-08-17T09:22:35.345Z,27.80
2022-08-17T09:25:13.035Z,28.10
2022-08-17T09:27:54.880Z,28.30
2022-08-17T09:30:24.984Z,28.50
2022-08-17T09:32:59.566Z,28.70
2022-08-17T09:35:36.990Z,28.90
2022-08-17T09:38:22.162Z,29.00
2022-08-17T09:41:00.763Z,29.10
2022-08-17T09:43:39.821Z,29.20
2022-08-17T09:46:16.867Z,29.10
2022-08-17T09:48:55.236Z,29.20
2022-08-17T09:51:34.171Z,29.40
2022-08-17T09:54:34.989Z,29.50
2022-08-17T09:57:28.617Z,29.50
2022-08-17T10:00:16.952Z,29.60
2022-08-17T10:03:23.622Z,29.70
2022-08-17T10:05:59.755Z,29.90
2022-08-17T10:08:38.654Z,30.00
2022-08-17T10:11:22.400Z,30.00
2022-08-17T10:14:36.406Z,30.10
2022-08-17T10:17:13.158Z,30.30
2022-08-17T10:19:54.132Z,30.50
2022-08-17T10:22:43.799Z,30.80
2022-08-17T10:25:53.521Z,31.00
2022-08-17T10:28:29.462Z,31.10
2022-08-17T10:31:33.062Z,31.20
2022-08-17T10:34:11.942Z,31.20
2022-08-17T10:36:54.712Z,30.90
2022-08-17T10:39:50.361Z,31.00
2022-08-17T10:42:30.535Z,31.20
2022-08-17T10:45:07.761Z,31.40
2022-08-17T10:48:04.626Z,31.60
2022-08-17T10:50:58.529Z,31.90
2022-08-17T10:53:58.316Z,32.00
2022-08-17T10:56:45.049Z,32.20
2022-08-17T10:59:55.133Z,32.30
2022-08-17T11:02:28.808Z,32.30
2022-08-17T11:05:18.591Z,32.30
2022-08-17T11:08:14.357Z,31.90
2022-08-17T11:11:11.235Z,31.00
2022-08-17T11:13:52.045Z,31.10
2022-08-17T11:17:03.030Z,31.20
2022-08-17T11:20:21.017Z,31.00
2022-08-17T11:23:30.294Z,31.10
2022-08-17T11:26:03.939Z,31.30
2022-08-17T11:28:36.802Z,31.40
2022-08-17T11:31:38.038Z,31.70
2022-08-17T11:34:18.508Z,32.00
2022-08-17T11:37:19.353Z,32.30
2022-08-17T11:40:27.744Z,32.70
2022-08-17T11:43:33.027Z,32.80
2022-08-17T11:46:19.497Z,32.90
2022-08-17T11:49:19.661Z,33.00
2022-08-17T11:52:36.056Z,33.00
2022-08-17T11:55:31.768Z,33.40
2022-08-17T11:58:00.938Z,33.30
2022-08-17T12:00:57.397Z,33.50
2022-08-17T12:03:56.013Z,33.50
2022-08-17T12:06:47.512Z,33.50
2022-08-17T12:09:24.587Z,33.30
2022-08-17T12:12:13.374Z,32.80
2022-08-17T12:17:40.739Z,32.50
2022-08-17T12:20:19.148Z,32.40
2022-08-17T12:23:00.895Z,32.50
2022-08-17T12:25:38.908Z,32.60
2022-08-17T12:28:25.307Z,32.80
2022-08-17T12:30:54.747Z,33.00
2022-08-17T12:33:28.628Z,33.20
2022-08-17T12:36:02.773Z,33.40
2022-08-17T12:38:34.714Z,33.60
2022-08-17T12:41:22.404Z,33.60
2022-08-17T12:44:01.553Z,33.40
2022-08-17T12:46:33.664Z,33.10
2022-08-17T12:49:24.635Z,33.20
2022-08-17T12:52:02.883Z,33.40
2022-08-17T12:54:42.996Z,33.40
2022-08-17T12:57:18.187Z,33.40
2022-08-17T12:59:51.792Z,33.50
2022-08-17T13:02:33.383Z,33.70
2022-08-17T13:05:03.024Z,34.00
2022-08-17T13:07:36.289Z,33.90
2022-08-17T13:10:06.000Z,33.80
2022-08-17T13:12:37.154Z,33.60
2022-08-17T13:15:07.707Z,33.50
2022-08-17T13:17:37.748Z,33.10
2022-08-17T13:20:15.609Z,33.20
2022-08-17T13:22:44.489Z,33.00
2022-08-17T13:25:17.764Z,32.80
2022-08-17T13:27:52.787Z,32.90
2022-08-17T13:30:27.959Z,33.20
2022-08-17T13:32:58.376Z,33.40
2022-08-17T13:35:50.174Z,33.70
2022-08-17T13:38:41.071Z,33.90
2022-08-17T13:41:09.043Z,33.50
2022-08-17T13:43:46.359Z,33.00
2022-08-17T13:46:23.845Z,32.90
2022-08-17T13:49:01.888Z,33.10
2022-08-17T13:51:35.155Z,33.10
2022-08-17T13:54:21.397Z,32.90
2022-08-17T13:57:05.862Z,32.80
2022-08-17T13:59:55.158Z,32.70
2022-08-17T14:02:28.254Z,32.60
2022-08-17T14:04:58.507Z,32.60
2022-08-17T14:07:34.758Z,32.80
2022-08-17T14:10:13.068Z,32.90
2022-08-17T14:12:44.621Z,32.80
2022-08-17T14:15:17.635Z,32.60
2022-08-17T14:17:46.078Z,32.60
2022-08-17T14:20:14.814Z,32.60
2022-08-17T14:22:51.260Z,32.60
2022-08-17T14:25:22.757Z,32.70
2022-08-17T14:27:53.952Z,32.80
2022-08-17T14:30:28.815Z,32.80
2022-08-17T14:32:58.440Z,32.80
2022-08-17T14:35:28.027Z,32.70
2022-08-17T14:37:56.864Z,32.50
2022-08-17T14:40:26.266Z,32.30
2022-08-17T14:42:57.809Z,32.50
2022-08-17T14:45:33.281Z,32.40
2022-08-17T14:48:05.513Z,32.50
2022-08-17T14:50:35.791Z,32.40
2022-08-17T14:53:05.243Z,32.20
2022-08-17T14:55:33.591Z,32.30
2022-08-17T14:58:01.644Z,32.20
2022-08-17T15:00:31.370Z,32.30
2022-08-17T15:03:02.260Z,32.30
2022-08-17T15:05:33.835Z,32.40
2022-08-17T15:08:04.641Z,32.40
2022-08-17T15:10:34.243Z,32.50
2022-08-17T15:13:02.373Z,32.70
2022-08-17T15:15:32.068Z,32.90
2022-08-17T15:18:01.005Z,33.10
2022-08-17T15:20:31.167Z,33.30
2022-08-17T15:22:59.907Z,33.30
2022-08-17T15:25:31.695Z,33.20
2022-08-17T15:28:03.038Z,33.20
2022-08-17T15:30:32.866Z,33.00
2022-08-17T15:33:02.126Z,32.80
2022-08-17T15:35:34.133Z,32.60
2022-08-17T15:38:11.970Z,32.60
2022-08-17T15:40:45.542Z,32.60
2022-08-17T15:43:20.106Z,32.30
2022-08-17T15:46:02.921Z,32.10
2022-08-17T15:48:41.918Z,31.80
2022-08-17T15:51:13.922Z,31.70
2022-08-17T15:53:44.633Z,31.60
2022-08-17T15:56:14.887Z,31.70
2022-08-17T15:58:46.513Z,31.70
2022-08-17T16:02:15.377Z,31.70
2022-08-17T16:04:23.576Z,31.70
2022-08-17T16:06:55.388Z,31.80
2022-08-17T16:09:23.306Z,31.90
2022-08-17T16:11:52.053Z,32.00
2022-08-17T16:14:24.095Z,32.00
2022-08-17T16:16:53.703Z,31.90
2022-08-17T16:19:21.699Z,31.90
2022-08-17T16:21:49.633Z,31.80
2022-08-17T16:24:20.160Z,32.00
2022-08-17T16:26:48.384Z,32.10
2022-08-17T16:29:16.673Z,32.00
2022-08-17T16:31:44.752Z,31.90
2022-08-17T16:34:17.482Z,31.70
2022-08-17T16:36:54.852Z,31.70
2022-08-17T16:39:29.647Z,31.60
2022-08-17T16:41:58.472Z,31.40
2022-08-17T16:44:31.602Z,31.40
2022-08-17T16:47:01.252Z,31.30
2022-08-17T16:49:37.059Z,31.20
2022-08-17T16:52:09.544Z,31.00
2022-08-17T16:54:43.296Z,30.90
2022-08-17T16:57:11.920Z,30.80
2022-08-17T16:59:42.704Z,30.70
2022-08-17T17:02:17.898Z,30.70
2022-08-17T17:04:56.030Z,30.70
2022-08-17T17:07:42.219Z,30.60
2022-08-17T17:10:15.330Z,30.50
2022-08-17T17:13:03.804Z,30.50
2022-08-17T17:15:48.231Z,30.50
2022-08-17T17:18:17.577Z,30.50
2022-08-17T17:20:55.667Z,30.40
2022-08-17T17:23:42.019Z,30.40
2022-08-17T17:26:35.170Z,30.30
2022-08-17T17:29:23.156Z,30.30
2022-08-17T17:32:13.907Z,30.30
2022-08-17T17:34:51.077Z,30.20
2022-08-17T17:37:29.474Z,30.10
2022-08-17T17:40:02.085Z,30.10
2022-08-17T17:42:33.106Z,30.10
2022-08-17T17:45:10.626Z,30.10
2022-08-17T17:47:39.016Z,29.90
2022-08-17T17:50:09.262Z,29.90
2022-08-17T17:52:54.488Z,29.80
2022-08-17T17:55:55.927Z,29.80
2022-08-17T17:58:36.789Z,29.90
2022-08-17T18:01:26.271Z,29.80
2022-08-17T18:04:20.740Z,29.60
2022-08-17T18:07:12.255Z,29.50
2022-08-17T18:10:19.433Z,29.40
2022-08-17T18:13:10.674Z,29.40
2022-08-17T18:15:51.313Z,29.40
2022-08-17T18:18:46.954Z,29.40
2022-08-17T18:21:19.508Z,29.40
2022-08-17T18:23:54.964Z,29.30
2022-08-17T18:26:55.195Z,29.40
2022-08-17T18:29:41.527Z,29.20
2022-08-17T18:32:40.771Z,29.10
2022-08-17T18:35:35.022Z,29.10
2022-08-17T18:38:28.299Z,29.00
2022-08-17T18:41:06.552Z,29.00
2022-08-17T18:43:53.136Z,29.00
2022-08-17T18:46:30.142Z,28.90
2022-08-17T18:49:02.055Z,28.90
2022-08-17T18:51:41.094Z,28.80
2022-08-17T18:54:21.564Z,28.70
2022-08-17T18:56:53.830Z,28.70
2022-08-17T18:59:32.167Z,28.70
2022-08-17T19:02:44.724Z,28.60
2022-08-17T19:05:28.793Z,28.60
2022-08-17T19:08:21.374Z,28.50
2022-08-17T19:10:53.950Z,28.50
2022-08-17T19:13:30.174Z,28.50
2022-08-17T19:16:14.136Z,28.50
2022-08-17T19:18:53.072Z,28.40
2022-08-17T19:21:27.852Z,28.40
2022-08-17T19:24:06.593Z,28.30
2022-08-17T19:26:53.513Z,28.20
2022-08-17T19:29:43.092Z,28.20
2022-08-17T19:32:17.712Z,28.20
2022-08-17T19:34:45.897Z,28.20
2022-08-17T19:37:30.739Z,28.10
2022-08-17T19:40:24.530Z,28.00
2022-08-17T19:43:15.773Z,28.00
2022-08-17T19:46:01.408Z,27.80
2022-08-17T19:48:48.297Z,27.40
2022-08-17T19:51:28.090Z,27.30
2022-08-17T19:54:06.958Z,27.20
2022-08-17T19:56:47.626Z,27.00
2022-08-17T19:59:35.966Z,26.90
2022-08-17T20:02:24.726Z,26.90
2022-08-17T20:05:02.146Z,26.90
2022-08-17T20:07:43.136Z,27.00
2022-08-17T20:10:21.583Z,26.90
2022-08-17T20:12:52.795Z,26.80
2022-08-17T20:15:30.598Z,26.80
2022-08-17T20:18:03.204Z,26.80
2022-08-17T20:20:46.913Z,26.70
2022-08-17T20:23:31.622Z,26.70
2022-08-17T20:26:19.275Z,26.60
2022-08-17T20:29:37.182Z,26.50
2022-08-17T20:32:26.440Z,26.50
2022-08-17T20:35:22.390Z,26.40
2022-08-17T20:38:00.022Z,26.50
2022-08-17T20:40:33.588Z,26.30
2022-08-17T20:43:44.345Z,26.20
2022-08-17T20:46:29.568Z,26.10
2022-08-17T20:49:16.434Z,26.00
2022-08-17T20:52:02.180Z,25.90
2022-08-17T20:54:51.067Z,25.60
2022-08-17T20:57:48.799Z,25.40
2022-08-17T21:00:46.366Z,25.30
2022-08-17T21:03:51.797Z,25.30
2022-08-17T21:06:24.568Z,25.20
2022-08-17T21:08:58.886Z,24.90
2022-08-17T21:12:04.289Z,24.80
2022-08-17T21:14:58.597Z,24.70
2022-08-17T21:17:49.740Z,24.70
2022-08-17T21:20:40.104Z,24.60
2022-08-17T21:23:41.344Z,24.60
2022-08-17T21:26:30.799Z,24.60
2022-08-17T21:29:31.170Z,24.50
2022-08-17T21:32:24.561Z,24.50
2022-08-17T21:35:28.413Z,24.40
2022-08-17T21:38:05.030Z,24.40
2022-08-17T21:40:36.349Z,24.40
2022-08-17T21:43:25.523Z,24.50
2022-08-17T21:46:02.897Z,24.50
2022-08-17T21:48:41.432Z,24.70
2022-08-17T21:51:13.889Z,24.40
2022-08-17T21:53:48.926Z,24.30
2022-08-17T21:56:25.694Z,24.10
2022-08-17T21:59:02.062Z,24.20
2022-08-17T22:01:34.813Z,24.20
2022-08-17T22:04:20.276Z,24.00
2022-08-17T22:06:55.822Z,23.80
2022-08-17T22:09:31.652Z,23.80
2022-08-17T22:12:09.888Z,23.80
2022-08-17T22:14:52.629Z,23.80
2022-08-17T22:17:25.440Z,23.90
2022-08-17T22:19:57.707Z,23.80
2022-08-17T22:22:32.682Z,23.80
2022-08-17T22:25:06.864Z,23.80
2022-08-17T22:27:54.322Z,23.60
2022-08-17T22:30:35.211Z,23.50
2022-08-17T22:33:32.281Z,23.60
2022-08-17T22:36:29.585Z,23.60
2022-08-17T22:39:00.543Z,23.60
2022-08-17T22:41:41.683Z,23.50
2022-08-17T22:44:17.993Z,23.50
2022-08-17T22:47:22.136Z,23.30
2022-08-17T22:49:57.352Z,23.20
2022-08-17T22:52:35.522Z,23.20
2022-08-17T22:55:34.473Z,23.20
2022-08-17T22:58:40.222Z,23.30
2022-08-17T23:01:26.398Z,23.20
2022-08-17T23:03:56.724Z,23.00
2022-08-17T23:06:25.156Z,23.00
2022-08-17T23:08:56.269Z,22.90
2022-08-17T23:11:42.815Z,22.90
2022-08-17T23:14:19.020Z,22.90
2022-08-17T23:16:48.619Z,22.90
2022-08-17T23:19:21.041Z,22.80
2022-08-17T23:21:53.819Z,22.80
2022-08-17T23:24:27.272Z,22.70
2022-08-17T23:26:56.991Z,22.80
2022-08-17T23:29:29.486Z,22.70
2022-08-17T23:31:59.960Z,22.70
2022-08-17T23:34:29.291Z,22.70
2022-08-17T23:36:57.644Z,22.80
2022-08-17T23:39:28.039Z,22.70
2022-08-17T23:41:58.049Z,22.70
2022-08-17T23:44:28.742Z,22.40
2022-08-17T23:46:57.166Z,22.20
2022-08-17T23:49:25.320Z,22.10
2022-08-17T23:51:55.252Z,22.10
2022-08-17T23:54:29.779Z,21.90
2022-08-17T23:56:57.747Z,21.90
2022-08-17T23:59:27.450Z,21.80
